createdAt,value
2017-12-19T00:01:44.807Z,2.50
2017-12-19T00:04:12.298Z,2.70
2017-12-19T00:06:39.791Z,3.12
2017-12-19T00:09:08.075Z,2.90
2017-12-19T00:11:35.579Z,3.53
2017-12-19T00:14:03.076Z,2.22
2017-12-19T00:16:30.711Z,3.28
2017-12-19T00:18:58.204Z,3.25
2017-12-19T00:21:25.699Z,3.00
2017-12-19T00:23:53.251Z,3.15
2017-12-19T00:26:20.751Z,2.40
2017-12-19T00:28:48.251Z,2.65
2017-12-19T00:31:15.771Z,2.75
2017-12-19T00:33:44.040Z,3.42
2017-12-19T00:36:12.322Z,3.92
2017-12-19T00:38:40.624Z,3.28
2017-12-19T00:41:08.124Z,3.40
2017-12-19T00:43:35.639Z,3.22
2017-12-19T00:46:03.151Z,2.72
2017-12-19T00:48:30.648Z,3.15
2017-12-19T00:50:58.142Z,2.92
2017-12-19T00:53:25.663Z,2.72
2017-12-19T00:55:53.172Z,3.03
2017-12-19T00:58:20.680Z,2.50
2017-12-19T01:00:48.190Z,2.25
2017-12-19T01:03:15.681Z,3.05
2017-12-19T01:05:43.176Z,2.25
2017-12-19T01:08:10.678Z,3.58
2017-12-19T01:10:38.951Z,2.90
2017-12-19T01:13:07.215Z,2.67
2017-12-19T01:15:34.724Z,3.37
2017-12-19T01:18:02.214Z,3.20
2017-12-19T01:20:29.707Z,3.20
2017-12-19T01:22:57.989Z,3.37
2017-12-19T01:25:25.550Z,4.47
2017-12-19T01:27:53.087Z,4.00
2017-12-19T01:30:21.340Z,3.47
2017-12-19T01:32:48.837Z,3.40
2017-12-19T01:35:16.347Z,2.37
2017-12-19T01:37:43.849Z,1.98
2017-12-19T01:40:12.182Z,4.28
2017-12-19T01:42:39.686Z,2.42
2017-12-19T01:45:07.168Z,2.67
2017-12-19T01:47:34.660Z,2.78
2017-12-19T01:50:02.177Z,2.25
2017-12-19T01:52:29.690Z,2.92
2017-12-19T01:54:57.964Z,2.00
2017-12-19T01:57:26.260Z,1.80
2017-12-19T01:59:53.773Z,1.90
2017-12-19T02:02:21.269Z,1.92
2017-12-19T02:04:48.805Z,1.90
2017-12-19T02:07:17.068Z,2.20
2017-12-19T02:09:44.587Z,2.45
2017-12-19T02:12:12.084Z,1.92
2017-12-19T02:14:39.579Z,1.60
2017-12-19T02:17:07.186Z,1.67
2017-12-19T02:19:34.685Z,2.10
2017-12-19T02:22:02.178Z,2.33
2017-12-19T02:24:29.688Z,1.80
2017-12-19T02:26:57.968Z,2.22
2017-12-19T02:29:26.228Z,2.20
2017-12-19T02:31:54.528Z,2.08
2017-12-19T02:34:22.047Z,2.12
2017-12-19T02:36:49.542Z,1.70
2017-12-19T02:39:17.042Z,1.67
2017-12-19T02:41:44.527Z,1.60
2017-12-19T02:44:12.795Z,1.50
2017-12-19T02:46:40.408Z,1.45
2017-12-19T02:49:08.668Z,2.10
2017-12-19T02:51:36.163Z,1.60
2017-12-19T02:54:03.696Z,1.45
2017-12-19T02:56:31.191Z,1.70
2017-12-19T02:58:58.684Z,1.55
2017-12-19T03:01:26.227Z,1.52
2017-12-19T03:03:54.496Z,2.12
2017-12-19T03:06:22.021Z,1.23
2017-12-19T03:08:49.531Z,1.80
2017-12-19T03:11:17.054Z,1.90
2017-12-19T03:13:44.552Z,1.55
2017-12-19T03:16:12.082Z,1.85
2017-12-19T03:18:39.614Z,1.92
2017-12-19T03:21:07.116Z,2.00
2017-12-19T03:23:34.766Z,2.17
2017-12-19T03:26:03.032Z,2.25
2017-12-19T03:28:31.303Z,2.08
2017-12-19T03:30:58.804Z,2.35
2017-12-19T03:33:26.305Z,2.20
2017-12-19T03:35:53.805Z,2.80
2017-12-19T03:38:21.331Z,2.60
2017-12-19T03:40:48.830Z,2.55
2017-12-19T03:43:16.328Z,2.30
2017-12-19T03:45:44.627Z,2.50
2017-12-19T03:48:12.902Z,2.70
2017-12-19T03:50:41.173Z,2.15
2017-12-19T03:53:09.475Z,2.28
2017-12-19T03:55:36.976Z,2.17
2017-12-19T03:58:04.471Z,1.60
2017-12-19T04:00:32.765Z,2.95
2017-12-19T04:03:00.259Z,2.50
2017-12-19T04:05:27.767Z,2.85
2017-12-19T04:07:55.273Z,2.60
2017-12-19T04:10:22.845Z,2.70
2017-12-19T04:12:50.359Z,2.05
2017-12-19T04:15:17.868Z,2.42
2017-12-19T04:17:45.358Z,2.20
2017-12-19T04:20:12.892Z,2.05
2017-12-19T04:22:41.163Z,2.60
2017-12-19T04:25:09.431Z,2.00
2017-12-19T04:27:37.826Z,2.10
2017-12-19T04:30:06.106Z,2.40
2017-12-19T04:32:33.652Z,2.37
2017-12-19T04:35:01.928Z,2.45
2017-12-19T04:37:30.196Z,2.58
2017-12-19T04:39:57.700Z,2.80
2017-12-19T04:42:25.208Z,2.33
2017-12-19T04:44:53.589Z,2.50
2017-12-19T04:47:21.850Z,2.15
2017-12-19T04:49:56.021Z,2.45
2017-12-19T04:52:23.516Z,2.05
2017-12-19T04:54:51.044Z,1.50
2017-12-19T04:57:18.538Z,1.77
2017-12-19T04:59:46.801Z,1.90
2017-12-19T05:02:14.350Z,2.20
2017-12-19T05:04:41.834Z,1.80
2017-12-19T05:07:10.097Z,1.80
2017-12-19T05:09:38.386Z,2.05
2017-12-19T05:12:05.884Z,1.60
2017-12-19T05:14:33.431Z,1.77
2017-12-19T05:17:00.933Z,1.67
2017-12-19T05:19:29.182Z,1.83
2017-12-19T05:21:57.695Z,1.87
2017-12-19T05:24:25.961Z,1.80
2017-12-19T05:26:54.265Z,1.60
2017-12-19T05:29:21.763Z,2.00
2017-12-19T05:31:49.288Z,1.95
2017-12-19T05:34:16.814Z,1.40
2017-12-19T05:36:45.071Z,1.40
2017-12-19T05:39:12.599Z,1.73
2017-12-19T05:41:40.135Z,1.40
2017-12-19T05:44:07.657Z,2.25
2017-12-19T05:46:35.926Z,1.55
2017-12-19T05:49:04.182Z,1.70
2017-12-19T05:51:31.708Z,1.58
2017-12-19T05:53:59.200Z,1.40
2017-12-19T05:56:27.470Z,1.70
2017-12-19T05:58:55.030Z,1.60
2017-12-19T06:01:22.526Z,1.60
2017-12-19T06:03:50.032Z,1.25
2017-12-19T06:06:17.528Z,1.30
2017-12-19T06:08:45.788Z,1.17
2017-12-19T06:11:14.088Z,1.58
2017-12-19T06:13:41.593Z,1.50
2017-12-19T06:16:09.076Z,1.75
2017-12-19T06:18:37.360Z,1.65
2017-12-19T06:21:05.627Z,1.85
2017-12-19T06:23:33.114Z,1.73
2017-12-19T06:26:00.615Z,2.00
2017-12-19T06:28:28.164Z,2.08
2017-12-19T06:30:55.654Z,1.92
2017-12-19T06:33:23.948Z,1.60
2017-12-19T06:35:51.449Z,1.70
2017-12-19T06:38:18.940Z,2.37
2017-12-19T06:40:46.468Z,1.90
2017-12-19T06:43:13.957Z,1.65
2017-12-19T06:45:42.233Z,1.65
2017-12-19T06:48:09.752Z,1.40
2017-12-19T06:50:37.249Z,1.27
2017-12-19T06:53:05.547Z,1.70
2017-12-19T06:55:33.076Z,1.27
2017-12-19T06:58:00.577Z,2.00
2017-12-19T07:00:28.065Z,1.52
2017-12-19T07:02:55.576Z,2.22
2017-12-19T07:05:23.088Z,2.60
2017-12-19T07:07:50.585Z,1.67
2017-12-19T07:10:18.111Z,1.70
2017-12-19T07:12:46.377Z,2.00
2017-12-19T07:15:13.879Z,1.77
2017-12-19T07:17:41.401Z,2.03
2017-12-19T07:20:09.663Z,1.40
2017-12-19T07:22:37.278Z,1.60
2017-12-19T07:25:04.776Z,1.37
2017-12-19T07:27:32.272Z,1.50
2017-12-19T07:29:59.789Z,1.55
2017-12-19T07:32:27.292Z,1.80
2017-12-19T07:34:54.817Z,1.60
2017-12-19T07:37:22.309Z,1.33
2017-12-19T07:39:49.820Z,1.30
2017-12-19T07:42:17.312Z,1.15
2017-12-19T07:44:44.814Z,1.17
2017-12-19T07:47:12.326Z,1.67
2017-12-19T07:49:39.844Z,1.10
2017-12-19T07:52:07.340Z,1.35
2017-12-19T07:54:34.879Z,1.00
2017-12-19T07:57:03.156Z,1.30
2017-12-19T07:59:31.423Z,1.58
2017-12-19T08:01:59.802Z,1.10
2017-12-19T08:04:28.078Z,1.12
2017-12-19T08:06:55.586Z,1.40
2017-12-19T08:09:23.134Z,1.23
2017-12-19T08:11:50.660Z,1.50
2017-12-19T08:14:18.213Z,1.70
2017-12-19T08:16:45.680Z,1.93
2017-12-19T08:19:13.204Z,2.42
2017-12-19T08:21:40.743Z,2.10
2017-12-19T08:24:08.249Z,2.20
2017-12-19T08:26:35.742Z,2.15
2017-12-19T08:29:03.246Z,1.97
2017-12-19T08:31:31.515Z,2.00
2017-12-19T08:33:59.005Z,2.30
2017-12-19T08:36:26.520Z,2.30
2017-12-19T08:38:54.032Z,1.98
2017-12-19T08:41:21.544Z,1.42
2017-12-19T08:43:49.834Z,1.40
2017-12-19T08:46:18.114Z,1.73
2017-12-19T08:48:45.643Z,1.80
2017-12-19T08:51:13.147Z,1.85
2017-12-19T08:53:40.636Z,2.05
2017-12-19T08:56:08.147Z,2.50
2017-12-19T08:58:35.657Z,2.30
2017-12-19T09:01:03.166Z,2.47
2017-12-19T09:03:30.816Z,2.10
2017-12-19T09:05:58.320Z,2.10
2017-12-19T09:08:25.812Z,3.00
2017-12-19T09:10:54.192Z,6.20
2017-12-19T09:13:22.516Z,9.30
2017-12-19T09:15:50.012Z,8.02
2017-12-19T09:18:17.530Z,7.00
2017-12-19T09:20:45.027Z,5.25
2017-12-19T09:23:12.514Z,4.20
2017-12-19T09:25:40.032Z,3.50
2017-12-19T09:28:07.522Z,2.40
2017-12-19T09:30:35.045Z,2.50
2017-12-19T09:33:02.546Z,3.30
2017-12-19T09:35:30.835Z,2.60
2017-12-19T09:37:58.346Z,1.60
2017-12-19T09:40:26.600Z,2.15
2017-12-19T09:42:54.137Z,2.00
2017-12-19T09:45:21.659Z,1.80
2017-12-19T09:47:49.152Z,3.05
2017-12-19T09:50:16.686Z,5.30
2017-12-19T09:52:44.230Z,3.45
2017-12-19T09:55:11.748Z,3.95
2017-12-19T09:57:39.263Z,3.75
2017-12-19T10:00:06.774Z,3.85
2017-12-19T10:02:35.049Z,2.33
2017-12-19T10:05:03.430Z,2.45
2017-12-19T10:07:31.704Z,2.08
2017-12-19T10:09:59.980Z,1.85
2017-12-19T10:12:28.254Z,2.62
2017-12-19T10:14:56.523Z,1.62
2017-12-19T10:17:24.023Z,1.55
2017-12-19T10:19:51.652Z,1.50
2017-12-19T10:22:19.938Z,2.05
2017-12-19T10:24:47.521Z,1.40
2017-12-19T10:27:15.022Z,1.60
2017-12-19T10:29:42.518Z,1.80
2017-12-19T10:32:10.025Z,2.00
2017-12-19T10:34:37.635Z,1.40
2017-12-19T10:37:05.149Z,1.30
2017-12-19T10:39:32.642Z,1.50
2017-12-19T10:42:00.144Z,1.30
2017-12-19T10:44:27.643Z,1.52
2017-12-19T10:46:55.966Z,2.10
2017-12-19T10:49:23.500Z,3.40
2017-12-19T10:51:50.997Z,4.28
2017-12-19T10:54:18.499Z,3.75
2017-12-19T10:56:46.162Z,3.37
2017-12-19T11:05:02.048Z,3.00
2017-12-19T11:07:30.659Z,5.05
2017-12-19T11:09:58.928Z,3.58
2017-12-19T11:12:26.488Z,2.83
2017-12-19T11:14:54.777Z,2.60
2017-12-19T11:17:22.275Z,3.00
2017-12-19T11:19:49.778Z,3.53
2017-12-19T11:22:17.311Z,3.00
2017-12-19T11:24:44.821Z,2.03
2017-12-19T11:27:12.319Z,2.50
2017-12-19T11:29:39.869Z,2.65
2017-12-19T11:32:07.360Z,1.83
2017-12-19T11:34:35.620Z,1.95
2017-12-19T11:37:03.128Z,1.90
2017-12-19T11:39:30.635Z,1.98
2017-12-19T11:41:58.909Z,2.05
2017-12-19T11:44:26.519Z,5.10
2017-12-19T11:46:54.012Z,2.90
2017-12-19T11:49:21.525Z,2.95
2017-12-19T11:51:49.068Z,3.97
2017-12-19T11:54:16.622Z,2.50
2017-12-19T11:56:44.084Z,2.87
2017-12-19T11:59:11.607Z,3.00
2017-12-19T12:01:39.118Z,2.83
2017-12-19T12:04:06.620Z,1.97
2017-12-19T12:06:35.023Z,2.35
2017-12-19T12:09:02.538Z,2.27
2017-12-19T12:11:30.032Z,3.53
2017-12-19T12:13:57.566Z,2.90
2017-12-19T12:16:25.064Z,2.13
2017-12-19T12:18:52.584Z,2.00
2017-12-19T12:21:20.877Z,1.75
2017-12-19T12:23:49.149Z,2.40
2017-12-19T12:26:17.421Z,2.50
2017-12-19T12:28:45.707Z,2.62
2017-12-19T12:31:13.208Z,2.55
2017-12-19T12:33:40.699Z,2.30
2017-12-19T12:36:08.204Z,2.30
2017-12-19T12:38:35.700Z,4.87
2017-12-19T12:41:03.330Z,2.67
2017-12-19T12:43:30.844Z,2.80
2017-12-19T12:45:59.108Z,2.42
2017-12-19T12:48:27.404Z,1.83
2017-12-19T12:50:54.914Z,2.28
2017-12-19T12:53:22.436Z,2.50
2017-12-19T12:55:49.984Z,2.22
2017-12-19T12:58:17.493Z,2.22
2017-12-19T13:00:45.033Z,2.35
2017-12-19T13:03:12.571Z,2.30
2017-12-19T13:05:40.081Z,2.80
2017-12-19T13:08:08.363Z,2.28
2017-12-19T13:10:36.657Z,2.30
2017-12-19T13:13:04.147Z,2.40
2017-12-19T13:15:31.775Z,2.92
2017-12-19T13:17:59.284Z,2.90
2017-12-19T13:20:27.564Z,2.85
2017-12-19T13:22:55.090Z,2.67
2017-12-19T13:25:22.598Z,2.65
2017-12-19T13:27:50.850Z,2.55
2017-12-19T13:30:18.379Z,2.55
2017-12-19T13:32:45.888Z,1.95
2017-12-19T13:35:14.168Z,1.80
2017-12-19T13:37:42.484Z,2.30
2017-12-19T13:40:09.996Z,1.80
2017-12-19T13:42:38.251Z,1.70
2017-12-19T13:45:05.783Z,1.80
2017-12-19T13:47:33.284Z,1.87
2017-12-19T13:50:00.796Z,1.90
2017-12-19T13:52:28.405Z,2.10
2017-12-19T13:54:57.675Z,3.00
2017-12-19T13:57:25.168Z,2.50
2017-12-19T13:59:52.676Z,2.60
2017-12-19T14:02:20.178Z,3.58
2017-12-19T14:04:47.685Z,2.25
2017-12-19T14:07:15.210Z,2.70
2017-12-19T14:09:42.714Z,2.20
2017-12-19T14:12:10.215Z,2.00
2017-12-19T14:14:37.735Z,2.03
2017-12-19T14:17:05.241Z,2.30
2017-12-19T14:19:32.723Z,2.08
2017-12-19T14:22:00.287Z,2.08
2017-12-19T14:24:27.773Z,2.63
2017-12-19T14:26:56.050Z,1.80
2017-12-19T14:29:24.319Z,2.67
2017-12-19T14:31:52.599Z,2.40
2017-12-19T14:34:20.883Z,2.60
2017-12-19T14:36:49.148Z,1.45
2017-12-19T14:39:17.454Z,2.12
2017-12-19T14:41:44.956Z,1.80
2017-12-19T14:44:12.457Z,2.20
2017-12-19T14:46:39.989Z,2.10
2017-12-19T14:49:08.247Z,1.50
2017-12-19T14:51:35.785Z,2.10
2017-12-19T14:54:03.299Z,1.95
2017-12-19T14:56:30.810Z,2.15
2017-12-19T14:58:58.308Z,1.48
2017-12-19T15:01:26.595Z,1.67
2017-12-19T15:03:54.091Z,1.70
2017-12-19T15:06:22.373Z,2.30
2017-12-19T15:08:50.761Z,1.60
2017-12-19T15:11:19.033Z,2.47
2017-12-19T15:13:47.292Z,1.87
2017-12-19T15:16:14.826Z,1.42
2017-12-19T15:18:42.315Z,2.22
2017-12-19T15:21:09.937Z,2.10
2017-12-19T15:23:37.427Z,1.73
2017-12-19T15:26:04.935Z,1.92
2017-12-19T15:28:32.472Z,2.10
2017-12-19T15:30:59.975Z,1.62
2017-12-19T15:33:27.507Z,1.80
2017-12-19T15:35:55.029Z,1.60
2017-12-19T15:38:23.297Z,2.30
2017-12-19T15:40:51.610Z,1.80
2017-12-19T15:43:19.183Z,1.90
2017-12-19T15:45:47.011Z,1.60
2017-12-19T15:48:14.524Z,1.27
2017-12-19T15:50:42.032Z,1.70
2017-12-19T15:53:09.535Z,1.60
2017-12-19T15:55:37.074Z,1.70
2017-12-19T15:58:04.570Z,1.90
2017-12-19T16:00:32.100Z,1.52
2017-12-19T16:02:59.619Z,1.90
2017-12-19T16:05:27.129Z,1.50
2017-12-19T16:07:54.674Z,1.65
2017-12-19T16:10:22.184Z,1.73
2017-12-19T16:12:49.808Z,1.67
2017-12-19T16:15:17.318Z,2.35
2017-12-19T16:17:44.964Z,1.60
2017-12-19T16:20:12.480Z,1.65
2017-12-19T16:22:40.182Z,1.70
2017-12-19T16:25:07.784Z,1.50
2017-12-19T16:27:35.294Z,2.05
2017-12-19T16:30:02.818Z,1.98
2017-12-19T16:32:30.316Z,1.87
2017-12-19T16:34:57.848Z,2.03
2017-12-19T16:37:27.186Z,2.50
2017-12-19T16:39:54.691Z,1.70
2017-12-19T16:42:23.015Z,2.12
2017-12-19T16:44:50.549Z,1.90
2017-12-19T16:47:18.380Z,2.20
2017-12-19T16:49:45.919Z,2.70
2017-12-19T16:52:13.444Z,3.30
2017-12-19T16:54:40.949Z,3.50
2017-12-19T16:57:08.464Z,2.30
2017-12-19T16:59:35.960Z,3.05
2017-12-19T17:02:03.530Z,3.00
2017-12-19T17:04:31.048Z,3.55
2017-12-19T17:06:59.307Z,3.10
2017-12-19T17:09:26.836Z,3.30
2017-12-19T17:11:54.348Z,2.60
2017-12-19T17:14:22.613Z,2.55
2017-12-19T17:16:50.909Z,2.75
2017-12-19T17:19:18.499Z,2.55
2017-12-19T17:21:46.010Z,2.58
2017-12-19T17:24:14.536Z,3.10
2017-12-19T17:26:42.044Z,2.83
2017-12-19T17:29:10.686Z,2.97
2017-12-19T17:31:38.204Z,2.12
2017-12-19T17:34:05.724Z,2.40
2017-12-19T17:36:33.270Z,2.83
2017-12-19T17:39:00.837Z,1.90
2017-12-19T17:41:28.374Z,2.12
2017-12-19T17:43:56.769Z,1.95
2017-12-19T17:46:24.264Z,2.03
2017-12-19T17:48:51.887Z,3.00
2017-12-19T17:51:19.549Z,2.20
2017-12-19T17:53:47.058Z,2.12
2017-12-19T17:56:14.604Z,2.10
2017-12-19T17:58:43.337Z,1.90
2017-12-19T18:01:10.850Z,2.22
2017-12-19T18:03:38.343Z,2.08
2017-12-19T18:06:05.868Z,1.95
2017-12-19T18:08:33.363Z,2.45
2017-12-19T18:11:00.934Z,2.50
2017-12-19T18:13:28.797Z,1.45
2017-12-19T18:15:56.310Z,1.98
2017-12-19T18:18:23.913Z,2.15
2017-12-19T18:20:51.415Z,1.90
2017-12-19T18:23:18.951Z,2.40
2017-12-19T18:25:46.505Z,3.20
2017-12-19T18:28:14.057Z,3.12
2017-12-19T18:30:42.403Z,2.83
2017-12-19T18:33:09.971Z,2.20
2017-12-19T18:35:37.499Z,2.67
2017-12-19T18:38:05.170Z,2.00
2017-12-19T18:40:33.489Z,2.58
2017-12-19T18:43:00.987Z,2.30
2017-12-19T18:45:28.513Z,2.10
2017-12-19T18:47:56.061Z,1.80
2017-12-19T18:50:23.596Z,2.25
2017-12-19T18:52:51.257Z,2.10
2017-12-19T18:55:18.798Z,1.95
2017-12-19T18:57:47.105Z,1.60
2017-12-19T19:00:14.670Z,1.85
2017-12-19T19:02:42.178Z,1.60
2017-12-19T19:05:10.476Z,1.87
2017-12-19T19:07:38.024Z,1.70
2017-12-19T19:10:05.629Z,1.83
2017-12-19T19:12:33.237Z,2.05
2017-12-19T19:15:01.556Z,1.90
2017-12-19T19:17:29.086Z,1.83
2017-12-19T19:19:57.390Z,1.85
2017-12-19T19:22:25.017Z,1.75
2017-12-19T19:27:29.642Z,1.60
2017-12-19T19:29:57.152Z,1.80
2017-12-19T19:32:24.731Z,1.60
2017-12-19T19:34:52.288Z,1.50
2017-12-19T19:37:19.898Z,1.75
2017-12-19T19:39:48.221Z,2.00
2017-12-19T19:42:15.786Z,1.70
2017-12-19T19:44:43.398Z,1.83
2017-12-19T19:47:11.720Z,1.80
2017-12-19T19:49:39.291Z,2.10
2017-12-19T19:52:06.944Z,1.95
2017-12-19T19:54:34.564Z,2.15
2017-12-19T19:57:02.081Z,1.90
2017-12-19T19:59:29.631Z,2.00
2017-12-19T20:01:57.191Z,2.15
2017-12-19T20:04:24.680Z,2.10
2017-12-19T20:06:53.088Z,2.87
2017-12-19T20:09:20.656Z,3.30
2017-12-19T20:11:48.935Z,3.20
2017-12-19T20:14:16.498Z,2.75
2017-12-19T20:16:44.038Z,2.30
2017-12-19T20:19:11.636Z,2.60
2017-12-19T20:21:39.188Z,2.30
2017-12-19T20:24:06.744Z,3.10
2017-12-19T20:26:34.263Z,2.40
2017-12-19T20:29:01.799Z,2.10
2017-12-19T20:31:30.122Z,2.22
2017-12-19T20:33:57.700Z,2.00
2017-12-19T20:36:25.260Z,1.67
2017-12-19T20:38:52.847Z,2.20
2017-12-19T20:41:21.223Z,2.00
2017-12-19T20:43:49.480Z,2.42
2017-12-19T20:46:17.065Z,2.03
2017-12-19T20:48:44.619Z,2.40
2017-12-19T20:51:12.922Z,2.12
2017-12-19T20:53:40.544Z,2.60
2017-12-19T20:56:08.091Z,1.55
2017-12-19T20:58:35.638Z,2.30
2017-12-19T21:01:03.212Z,2.85
2017-12-19T21:03:30.751Z,2.78
2017-12-19T21:05:58.249Z,2.62
2017-12-19T21:08:25.825Z,1.55
2017-12-19T21:10:53.391Z,2.10
2017-12-19T21:13:20.955Z,1.52
2017-12-19T21:15:48.621Z,2.20
2017-12-19T21:18:16.174Z,2.00
2017-12-19T21:20:43.714Z,1.90
2017-12-19T21:23:11.471Z,1.45
2017-12-19T21:25:39.015Z,1.27
2017-12-19T21:28:06.573Z,1.50
2017-12-19T21:30:34.932Z,2.20
2017-12-19T21:33:02.471Z,1.42
2017-12-19T21:35:30.027Z,1.50
2017-12-19T21:37:57.592Z,1.20
2017-12-19T21:40:25.086Z,1.30
2017-12-19T21:42:52.655Z,1.77
2017-12-19T21:45:20.239Z,1.98
2017-12-19T21:47:47.799Z,2.10
2017-12-19T21:50:15.355Z,1.50
2017-12-19T21:52:42.939Z,1.35
2017-12-19T21:55:10.507Z,1.40
2017-12-19T21:57:38.008Z,1.62
2017-12-19T22:00:05.686Z,1.30
2017-12-19T22:02:33.234Z,1.70
2017-12-19T22:05:00.804Z,1.20
2017-12-19T22:07:28.377Z,1.73
2017-12-19T22:09:55.875Z,1.50
2017-12-19T22:12:24.186Z,1.60
2017-12-19T22:14:51.759Z,1.40
2017-12-19T22:17:19.329Z,1.50
2017-12-19T22:19:46.890Z,1.25
2017-12-19T22:22:14.514Z,1.30
2017-12-19T22:24:42.074Z,1.37
2017-12-19T22:27:09.631Z,1.20
2017-12-19T22:29:37.247Z,1.17
2017-12-19T22:32:05.567Z,1.40
2017-12-19T22:34:33.070Z,1.00
2017-12-19T22:37:00.659Z,1.65
2017-12-19T22:39:28.210Z,1.15
2017-12-19T22:41:55.775Z,1.15
2017-12-19T22:44:23.392Z,1.27
2017-12-19T22:46:51.768Z,1.40
2017-12-19T22:49:19.341Z,1.77
2017-12-19T22:51:47.831Z,1.35
2017-12-19T22:54:16.266Z,1.10
2017-12-19T22:56:43.818Z,1.30
2017-12-19T22:59:11.346Z,1.00
2017-12-19T23:01:38.898Z,1.20
2017-12-19T23:04:06.495Z,1.40
2017-12-19T23:06:34.132Z,1.75
2017-12-19T23:09:01.686Z,1.12
2017-12-19T23:11:29.226Z,1.80
2017-12-19T23:13:56.748Z,1.10
2017-12-19T23:16:24.303Z,1.10
2017-12-19T23:18:52.648Z,1.27
2017-12-19T23:21:20.191Z,0.95
2017-12-19T23:23:47.750Z,0.93
2017-12-19T23:26:15.266Z,1.37
2017-12-19T23:28:43.542Z,0.95
2017-12-19T23:31:11.845Z,0.65
2017-12-19T23:33:39.399Z,0.80
2017-12-19T23:36:06.970Z,0.68
2017-12-19T23:38:34.500Z,0.90
2017-12-19T23:41:02.760Z,1.05
2017-12-19T23:43:30.343Z,0.80
2017-12-19T23:45:58.624Z,1.00
2017-12-19T23:48:26.888Z,1.02
2017-12-19T23:50:54.395Z,1.00
2017-12-19T23:53:22.004Z,1.05
2017-12-19T23:55:50.273Z,1.30
2017-12-19T23:58:17.771Z,1.00
